Time;durP1;ratioP1;P1;durP2;ratioP2;P2;SDS_P1;SDS_P2;PMS_P1;PMS_P2;Temp;Humidity;BMP_temperature;BMP_pressure;BME280_temperature;BME280_humidity;BME280_pressure;Samples;Min_cycle;Max_cycle;Signal;HPM_P1;HPM_P2
2022/11/23 00:00:37;;;;;;;21.33;15.60;;;7.60;99.90;;;;;;5054134;28;20124;-78
2022/11/23 00:03:03;;;;;;;18.63;15.18;;;7.60;99.90;;;;;;5053852;28;20699;-78
2022/11/23 00:05:30;;;;;;;23.48;16.15;;;7.70;99.90;;;;;;5053785;28;20040;-77
2022/11/23 00:07:55;;;;;;;24.42;16.90;;;7.70;99.90;;;;;;5053501;28;20048;-78
2022/11/23 00:10:21;;;;;;;22.98;15.90;;;7.60;99.90;;;;;;5059914;28;20040;-77
2022/11/23 00:12:47;;;;;;;24.77;16.20;;;7.60;99.90;;;;;;5072882;28;20076;-78
2022/11/23 00:15:14;;;;;;;24.17;15.82;;;7.60;99.90;;;;;;5057107;28;20448;-77
2022/11/23 00:17:39;;;;;;;20.67;15.70;;;7.60;99.90;;;;;;5065017;28;20110;-77
2022/11/23 00:20:07;;;;;;;27.58;16.27;;;7.70;99.90;;;;;;5052834;28;20045;-77
2022/11/23 00:22:33;;;;;;;24.25;15.60;;;7.70;99.90;;;;;;5069977;28;20068;-77
2022/11/23 00:24:59;;;;;;;26.35;16.70;;;7.70;99.90;;;;;;5059980;28;20446;-77
2022/11/23 00:27:24;;;;;;;23.58;16.63;;;7.70;99.90;;;;;;5056303;28;20052;-77
2022/11/23 00:29:50;;;;;;;24.48;16.05;;;7.70;99.90;;;;;;5073347;28;20055;-78
2022/11/23 00:32:16;;;;;;;26.65;16.42;;;7.70;99.90;;;;;;5073488;28;20044;-78
2022/11/23 00:34:41;;;;;;;24.45;15.93;;;7.60;99.90;;;;;;5074518;28;20048;-78
2022/11/23 00:37:07;;;;;;;26.40;16.85;;;7.70;99.90;;;;;;5056030;28;20128;-79
2022/11/23 00:39:33;;;;;;;21.80;15.73;;;7.70;99.90;;;;;;5073144;28;20059;-78
2022/11/23 00:41:58;;;;;;;25.92;16.00;;;7.70;99.90;;;;;;5056231;28;20040;-79
2022/11/23 00:44:24;;;;;;;24.13;15.75;;;7.60;99.90;;;;;;5054968;28;20169;-80
2022/11/23 00:46:50;;;;;;;21.95;16.25;;;7.70;99.90;;;;;;5069587;28;20048;-78
2022/11/23 00:49:16;;;;;;;29.23;17.33;;;7.80;99.90;;;;;;5063893;28;20048;-79
2022/11/23 00:51:41;;;;;;;24.50;15.43;;;7.70;99.90;;;;;;5048393;28;20045;-78
2022/11/23 00:54:07;;;;;;;26.45;16.58;;;7.80;99.90;;;;;;5023426;28;20119;-79
2022/11/23 00:56:34;;;;;;;25.25;16.10;;;7.70;99.90;;;;;;5041671;28;20409;-79
2022/11/23 00:59:01;;;;;;;24.85;16.27;;;7.80;99.90;;;;;;5067577;28;20086;-79
2022/11/23 01:01:32;;;;;;;26.73;16.10;;;7.80;99.90;;;;;;5042941;28;20438;-79
2022/11/23 01:03:59;;;;;;;25.50;15.90;;;7.80;99.90;;;;;;5089871;28;20131;-79
2022/11/23 01:06:28;;;;;;;27.35;16.58;;;7.80;99.90;;;;;;5046093;28;20056;-79
2022/11/23 01:08:57;;;;;;;26.92;16.30;;;7.80;99.90;;;;;;5072528;28;20504;-78
2022/11/23 01:11:25;;;;;;;26.67;16.42;;;7.80;99.90;;;;;;5060736;28;20401;-80
2022/11/23 01:13:51;;;;;;;24.52;15.77;;;7.80;99.90;;;;;;5065460;28;20048;-79
2022/11/23 01:16:20;;;;;;;25.80;16.88;;;7.90;99.90;;;;;;5086554;28;20106;-79
2022/11/23 01:18:45;;;;;;;31.80;16.95;;;7.80;99.90;;;;;;5070682;28;20056;-79
2022/11/23 01:21:11;;;;;;;25.83;16.98;;;7.90;99.90;;;;;;5085888;28;20374;-79
2022/11/23 01:23:37;;;;;;;25.38;16.50;;;7.90;99.90;;;;;;5080103;28;20128;-79
2022/11/23 01:26:04;;;;;;;23.52;16.40;;;7.90;99.90;;;;;;5063718;28;20490;-79
2022/11/23 01:28:30;;;;;;;26.25;16.98;;;7.90;99.90;;;;;;5090088;28;20060;-79
2022/11/23 01:31:03;;;;;;;27.63;16.63;;;7.90;99.90;;;;;;5105163;28;20055;-78
2022/11/23 01:33:29;;;;;;;24.45;16.13;;;7.90;99.90;;;;;;5055970;28;20045;-80
2022/11/23 01:35:55;;;;;;;22.95;16.40;;;7.90;99.90;;;;;;5055015;28;20051;-80
2022/11/23 01:38:20;;;;;;;22.23;16.75;;;7.90;99.90;;;;;;5038734;28;20076;-80
2022/11/23 01:40:46;;;;;;;28.70;16.70;;;7.90;99.90;;;;;;5055418;28;20048;-79
2022/11/23 01:43:17;;;;;;;31.85;16.90;;;7.90;99.90;;;;;;5055428;28;20048;-80
2022/11/23 01:45:52;;;;;;;32.05;18.13;;;7.90;99.90;;;;;;5054812;28;20450;-80
2022/11/23 01:48:29;;;;;;;29.05;18.10;;;7.90;99.90;;;;;;5059235;28;20362;-80
2022/11/23 01:50:56;;;;;;;29.35;17.83;;;7.90;99.90;;;;;;5071579;28;20052;-80
2022/11/23 01:53:22;;;;;;;29.30;18.05;;;7.90;99.90;;;;;;5089053;28;20059;-80
2022/11/23 01:55:50;;;;;;;26.42;15.90;;;7.90;99.90;;;;;;5088483;28;20041;-80
2022/11/23 01:58:22;;;;;;;28.88;18.33;;;7.90;99.90;;;;;;5040314;28;20086;-79
2022/11/23 02:00:48;;;;;;;25.50;18.30;;;7.90;99.90;;;;;;5085183;28;20040;-80
2022/11/23 02:03:14;;;;;;;34.70;17.50;;;7.90;99.90;;;;;;5055364;28;20052;-80
2022/11/23 02:05:47;;;;;;;31.00;18.70;;;7.90;99.90;;;;;;5038591;28;20049;-79
2022/11/23 02:08:15;;;;;;;28.33;16.40;;;7.90;99.90;;;;;;5071799;28;20048;-79
2022/11/23 02:10:41;;;;;;;31.88;16.95;;;7.80;99.90;;;;;;5075613;28;20060;-80
2022/11/23 02:13:09;;;;;;;30.50;18.30;;;7.90;99.90;;;;;;5071838;28;20044;-80
2022/11/23 02:15:36;;;;;;;27.67;17.67;;;7.90;99.90;;;;;;5084235;28;20040;-80
2022/11/23 02:18:05;;;;;;;26.95;17.73;;;7.90;99.90;;;;;;5071108;28;20067;-80
2022/11/23 02:20:31;;;;;;;28.50;17.27;;;7.90;99.90;;;;;;5071645;28;20047;-80
2022/11/23 02:23:02;;;;;;;27.58;17.88;;;7.90;99.90;;;;;;5088737;28;20036;-82
2022/11/23 02:25:46;;;;;;;33.38;19.65;;;7.90;99.90;;;;;;5088377;28;20053;-80
2022/11/23 02:28:19;;;;;;;30.27;18.55;;;7.90;99.90;;;;;;5092862;28;20120;-79
2022/11/23 02:30:48;;;;;;;31.63;19.27;;;7.90;99.90;;;;;;5057551;28;20045;-80
2022/11/23 02:33:13;;;;;;;33.72;20.67;;;7.90;99.90;;;;;;5062753;28;20049;-80
2022/11/23 02:35:51;;;;;;;35.10;21.45;;;8.00;99.90;;;;;;5035103;28;20129;-79
2022/11/23 02:38:17;;;;;;;34.60;21.23;;;7.90;99.90;;;;;;5045462;28;20131;-80
2022/11/23 02:40:43;;;;;;;32.28;21.17;;;8.00;99.90;;;;;;5071259;28;20041;-79
2022/11/23 02:43:08;;;;;;;37.92;21.35;;;8.00;99.90;;;;;;5091381;28;20048;-79
2022/11/23 02:45:43;;;;;;;37.28;21.05;;;8.00;99.90;;;;;;5072399;28;20503;-79
2022/11/23 02:48:09;;;;;;;37.55;22.27;;;7.90;99.90;;;;;;5061690;28;20507;-80
2022/11/23 02:50:34;;;;;;;40.92;21.23;;;7.90;99.90;;;;;;5056645;28;20045;-79
2022/11/23 02:53:00;;;;;;;37.47;21.70;;;7.90;99.90;;;;;;5068098;28;20041;-83
2022/11/23 02:55:26;;;;;;;34.20;21.08;;;7.90;99.90;;;;;;5075861;28;20162;-80
2022/11/23 02:57:51;;;;;;;40.13;22.58;;;8.00;99.90;;;;;;5040100;28;20041;-79
2022/11/23 03:00:17;;;;;;;35.45;22.98;;;8.00;99.90;;;;;;5069640;28;20125;-80
2022/11/23 03:02:43;;;;;;;50.67;24.10;;;7.90;99.90;;;;;;5084207;28;20119;-80
2022/11/23 03:05:09;;;;;;;37.90;22.13;;;8.00;99.90;;;;;;5099807;28;20135;-80
2022/11/23 03:07:35;;;;;;;39.20;22.65;;;7.90;99.90;;;;;;5038255;28;20048;-79
2022/11/23 03:10:00;;;;;;;43.30;23.73;;;7.90;99.90;;;;;;5055787;28;20551;-79
2022/11/23 03:12:26;;;;;;;44.40;23.75;;;7.90;99.90;;;;;;5083045;28;20128;-79
2022/11/23 03:14:52;;;;;;;46.42;23.98;;;7.90;99.90;;;;;;5108352;28;20070;-79
2022/11/23 03:17:18;;;;;;;34.00;21.88;;;7.90;99.90;;;;;;5057751;28;20161;-80
2022/11/23 03:19:43;;;;;;;37.80;22.10;;;7.90;99.90;;;;;;5063417;28;20521;-80
2022/11/23 03:22:09;;;;;;;38.38;24.13;;;7.90;99.90;;;;;;5062516;28;20037;-80
2022/11/23 03:24:35;;;;;;;42.13;23.48;;;7.90;99.90;;;;;;5074474;28;20045;-80
2022/11/23 03:27:01;;;;;;;42.55;23.67;;;7.90;99.90;;;;;;5074179;28;20062;-80
2022/11/23 03:29:27;;;;;;;43.83;24.42;;;7.90;99.90;;;;;;5073983;28;20504;-80
2022/11/23 03:31:53;;;;;;;43.22;24.63;;;7.90;99.90;;;;;;5074545;28;20048;-80
2022/11/23 03:34:19;;;;;;;42.13;23.98;;;8.00;99.90;;;;;;5056192;28;20041;-80
2022/11/23 03:36:45;;;;;;;44.17;26.48;;;8.00;99.90;;;;;;5047607;28;20051;-80
2022/11/23 03:39:10;;;;;;;46.72;26.60;;;8.00;99.90;;;;;;5074370;28;20071;-80
2022/11/23 03:41:36;;;;;;;47.47;26.30;;;7.90;99.90;;;;;;5076229;28;20097;-80
2022/11/23 03:44:02;;;;;;;48.65;27.83;;;8.00;99.90;;;;;;5028539;28;20044;-80
2022/11/23 03:46:28;;;;;;;49.67;28.10;;;7.90;99.90;;;;;;5049504;28;20049;-80
2022/11/23 03:48:54;;;;;;;55.45;27.83;;;7.90;99.90;;;;;;5057699;28;20044;-80
2022/11/23 03:51:20;;;;;;;50.20;27.45;;;7.90;99.90;;;;;;5039226;28;20056;-81
2022/11/23 03:53:45;;;;;;;49.80;28.23;;;8.00;99.90;;;;;;5063014;28;20490;-81
2022/11/23 03:56:11;;;;;;;48.28;26.67;;;8.00;99.90;;;;;;5040584;28;20045;-81
2022/11/23 03:58:37;;;;;;;49.22;27.30;;;7.90;99.90;;;;;;5059380;28;20392;-80
2022/11/23 04:01:02;;;;;;;47.88;27.17;;;8.00;99.90;;;;;;5063140;28;20444;-80
2022/11/23 04:03:28;;;;;;;51.28;26.92;;;8.00;99.90;;;;;;5073560;28;20476;-80
2022/11/23 04:05:54;;;;;;;52.50;27.83;;;8.00;99.90;;;;;;5074005;28;20052;-80
2022/11/23 04:08:20;;;;;;;46.50;26.92;;;8.00;99.90;;;;;;5057087;28;20041;-80
2022/11/23 04:10:45;;;;;;;49.15;27.52;;;8.00;99.90;;;;;;5073921;28;20044;-80
2022/11/23 04:13:11;;;;;;;44.90;26.50;;;8.00;99.90;;;;;;5073722;28;20070;-82
2022/11/23 04:15:37;;;;;;;47.72;26.88;;;7.90;99.90;;;;;;5072441;28;20044;-80
2022/11/23 04:18:03;;;;;;;49.25;28.00;;;8.00;99.90;;;;;;5080656;28;20044;-80
2022/11/23 04:20:29;;;;;;;50.45;27.27;;;8.00;99.90;;;;;;5071609;28;20098;-80
2022/11/23 04:22:54;;;;;;;46.22;26.67;;;8.00;99.90;;;;;;5020292;28;20053;-79
2022/11/23 04:25:20;;;;;;;47.38;27.98;;;7.90;99.90;;;;;;5056325;28;20076;-81
2022/11/23 04:27:46;;;;;;;49.05;27.58;;;7.90;99.90;;;;;;5070222;28;20053;-80
2022/11/23 04:30:12;;;;;;;51.47;29.00;;;7.90;99.90;;;;;;5070171;28;20091;-80
2022/11/23 04:32:38;;;;;;;58.38;29.80;;;7.90;99.90;;;;;;5057650;28;20049;-80
2022/11/23 04:35:04;;;;;;;49.78;28.50;;;7.80;99.90;;;;;;5055806;28;20059;-80
2022/11/23 04:37:29;;;;;;;46.45;29.65;;;7.80;99.90;;;;;;5110113;28;20059;-79
2022/11/23 04:39:55;;;;;;;50.47;29.15;;;7.70;99.90;;;;;;5076712;28;20052;-80
2022/11/23 04:42:21;;;;;;;59.30;30.20;;;7.70;99.90;;;;;;5059370;28;20048;-80
2022/11/23 04:44:46;;;;;;;50.47;28.80;;;7.60;99.90;;;;;;5087901;28;20044;-80
2022/11/23 04:47:12;;;;;;;49.72;29.02;;;7.60;99.90;;;;;;5069817;28;20048;-79
2022/11/23 04:49:38;;;;;;;50.65;26.85;;;7.60;99.90;;;;;;5069637;28;20049;-80
2022/11/23 04:52:04;;;;;;;53.75;30.88;;;7.60;99.90;;;;;;5067573;28;20135;-81
2022/11/23 04:54:30;;;;;;;51.53;30.52;;;7.60;99.90;;;;;;5073862;28;20133;-80
2022/11/23 04:56:56;;;;;;;49.92;29.15;;;7.70;99.90;;;;;;5056245;28;20127;-79
2022/11/23 04:59:22;;;;;;;60.38;31.52;;;7.60;99.90;;;;;;5072895;28;20118;-80
2022/11/23 05:01:51;;;;;;;48.65;25.63;;;7.60;99.90;;;;;;5062021;28;20049;-79
2022/11/23 05:04:17;;;;;;;46.65;25.92;;;7.70;99.90;;;;;;5073372;28;20053;-79
2022/11/23 05:06:43;;;;;;;48.88;27.10;;;7.70;99.90;;;;;;5085682;28;20114;-79
2022/11/23 05:09:08;;;;;;;47.70;27.23;;;7.70;99.90;;;;;;5019909;28;20044;-79
2022/11/23 05:11:34;;;;;;;52.38;28.15;;;7.80;99.90;;;;;;5053547;28;20052;-79
2022/11/23 05:14:00;;;;;;;56.65;27.95;;;7.70;99.90;;;;;;5086208;28;20037;-79
2022/11/23 05:16:25;;;;;;;47.15;27.58;;;7.70;99.90;;;;;;5085144;28;20093;-79
2022/11/23 05:18:51;;;;;;;47.58;27.02;;;7.80;99.90;;;;;;5105261;28;20102;-79
2022/11/23 05:21:17;;;;;;;46.30;27.70;;;7.80;99.90;;;;;;5064172;28;20095;-80
2022/11/23 05:23:42;;;;;;;49.35;29.00;;;7.80;99.90;;;;;;5052204;28;20076;-80
2022/11/23 05:26:08;;;;;;;49.88;26.63;;;7.80;99.90;;;;;;5056673;28;20056;-80
2022/11/23 05:28:34;;;;;;;49.95;25.92;;;7.80;99.90;;;;;;5061499;28;20094;-79
2022/11/23 05:30:59;;;;;;;49.05;24.25;;;7.80;99.90;;;;;;5036199;28;20053;-79
2022/11/23 05:33:25;;;;;;;44.45;25.90;;;7.70;99.90;;;;;;5052162;28;20458;-81
2022/11/23 05:35:51;;;;;;;46.42;25.35;;;7.80;99.90;;;;;;5052250;28;20083;-80
2022/11/23 05:38:16;;;;;;;42.72;24.02;;;7.80;99.90;;;;;;5068211;28;20075;-80
2022/11/23 05:40:45;;;;;;;43.90;23.52;;;7.80;99.90;;;;;;5072151;28;20044;-80
2022/11/23 05:43:11;;;;;;;44.70;23.55;;;7.80;99.90;;;;;;5055448;28;20064;-80
2022/11/23 05:45:37;;;;;;;43.22;24.02;;;7.80;99.90;;;;;;5072068;28;20129;-79
2022/11/23 05:48:03;;;;;;;44.13;23.60;;;7.80;99.90;;;;;;5089124;28;20105;-80
2022/11/23 05:50:29;;;;;;;44.20;24.65;;;7.80;99.90;;;;;;5066578;28;20048;-80
2022/11/23 05:52:59;;;;;;;50.40;25.00;;;7.70;99.90;;;;;;5093442;28;20117;-81
2022/11/23 05:55:25;;;;;;;51.13;26.90;;;7.80;99.90;;;;;;5093298;28;20056;-81
2022/11/23 05:57:51;;;;;;;55.30;29.23;;;7.80;99.90;;;;;;5074981;28;20044;-80
2022/11/23 06:00:17;;;;;;;50.47;29.13;;;7.80;99.90;;;;;;5075259;28;20079;-80
2022/11/23 06:02:43;;;;;;;49.22;26.85;;;7.70;99.90;;;;;;5091902;28;20122;-80
2022/11/23 06:05:09;;;;;;;48.30;27.40;;;7.70;99.90;;;;;;5075839;28;20198;-80
2022/11/23 06:07:35;;;;;;;54.72;30.55;;;7.70;99.90;;;;;;5072964;28;20123;-81
2022/11/23 06:10:03;;;;;;;54.85;29.00;;;7.70;99.90;;;;;;5055210;28;20136;-79
2022/11/23 06:12:29;;;;;;;55.78;30.55;;;7.60;99.90;;;;;;5054917;28;20048;-80
2022/11/23 06:14:55;;;;;;;52.28;29.77;;;7.60;99.90;;;;;;5064790;28;20397;-80
2022/11/23 06:17:21;;;;;;;57.65;31.00;;;7.70;99.90;;;;;;5053330;28;20053;-80
2022/11/23 06:19:46;;;;;;;61.95;32.17;;;7.60;99.90;;;;;;5055869;28;20053;-80
2022/11/23 06:22:12;;;;;;;54.97;30.42;;;7.60;99.90;;;;;;5072474;28;20070;-80
2022/11/23 06:24:38;;;;;;;57.53;32.28;;;7.60;99.90;;;;;;5059127;28;20109;-80
2022/11/23 06:27:04;;;;;;;59.75;33.60;;;7.60;99.90;;;;;;5058360;28;20083;-81
2022/11/23 06:29:29;;;;;;;62.13;33.28;;;7.70;99.90;;;;;;5060745;28;20060;-81
2022/11/23 06:31:55;;;;;;;54.10;32.58;;;7.70;99.90;;;;;;5038977;28;20044;-80
2022/11/23 06:34:21;;;;;;;66.07;32.92;;;7.70;99.90;;;;;;5055828;28;20478;-80
2022/11/23 06:36:46;;;;;;;60.38;32.88;;;7.70;99.90;;;;;;5090583;28;20389;-81
2022/11/23 06:39:12;;;;;;;59.10;33.35;;;7.70;99.90;;;;;;5076801;28;20076;-81
2022/11/23 06:41:38;;;;;;;60.03;33.75;;;7.70;99.90;;;;;;5092377;28;20493;-80
2022/11/23 06:44:04;;;;;;;61.85;31.58;;;7.80;99.90;;;;;;5096743;28;20048;-80
2022/11/23 06:46:31;;;;;;;55.55;31.13;;;7.80;99.90;;;;;;5076769;28;20519;-83
2022/11/23 06:48:57;;;;;;;56.13;32.05;;;7.80;99.90;;;;;;5076772;28;20051;-80
2022/11/23 06:51:22;;;;;;;52.38;30.27;;;7.80;99.90;;;;;;5109278;28;20040;-80
2022/11/23 06:53:48;;;;;;;58.20;32.00;;;7.80;99.90;;;;;;5092205;28;20052;-80
2022/11/23 06:56:14;;;;;;;50.97;29.00;;;7.80;99.90;;;;;;5091803;28;20409;-80
2022/11/23 06:58:40;;;;;;;53.50;29.00;;;7.80;99.90;;;;;;5068953;28;20073;-80
2022/11/23 07:01:07;;;;;;;55.40;28.92;;;7.80;99.90;;;;;;5091205;28;20048;-81
2022/11/23 07:03:34;;;;;;;50.38;27.38;;;7.80;99.90;;;;;;5074022;28;20045;-82
2022/11/23 07:06:07;;;;;;;53.67;28.60;;;7.80;99.90;;;;;;5076896;28;20053;-79
2022/11/23 07:08:34;;;;;;;42.88;25.67;;;7.80;99.90;;;;;;5041126;28;20060;-84
2022/11/23 07:11:05;;;;;;;45.50;27.35;;;7.80;99.90;;;;;;5074879;28;20400;-80
2022/11/23 07:13:31;;;;;;;48.17;26.55;;;7.80;99.90;;;;;;5066498;28;20484;-78
2022/11/23 07:15:58;;;;;;;50.00;27.15;;;7.80;99.90;;;;;;5038395;28;20554;-77
2022/11/23 07:18:24;;;;;;;45.03;24.48;;;7.80;99.90;;;;;;5082154;28;20055;-76
2022/11/23 07:20:49;;;;;;;44.00;24.73;;;7.80;99.90;;;;;;5075499;28;20098;-77
2022/11/23 07:23:15;;;;;;;41.38;23.95;;;7.80;99.90;;;;;;5074988;28;20389;-77
2022/11/23 07:25:41;;;;;;;42.00;25.20;;;7.80;99.90;;;;;;5074243;28;20046;-77
2022/11/23 07:28:07;;;;;;;38.28;22.10;;;7.90;99.90;;;;;;5074067;28;20044;-78
2022/11/23 07:30:34;;;;;;;34.38;21.38;;;7.80;99.90;;;;;;5041507;28;20044;-77
2022/11/23 07:33:02;;;;;;;37.10;21.27;;;7.90;99.90;;;;;;5074037;28;20053;-77
2022/11/23 07:35:27;;;;;;;37.88;22.95;;;7.80;99.90;;;;;;5075537;28;20127;-76
2022/11/23 07:37:53;;;;;;;34.53;22.17;;;7.90;99.90;;;;;;5073673;28;20124;-77
2022/11/23 07:40:19;;;;;;;34.28;20.52;;;7.80;99.90;;;;;;5054313;28;20056;-78
2022/11/23 07:42:45;;;;;;;34.75;21.60;;;7.80;99.90;;;;;;5063997;28;20041;-79
2022/11/23 07:45:11;;;;;;;37.72;21.48;;;7.70;99.90;;;;;;5090852;28;20044;-78
2022/11/23 07:47:38;;;;;;;37.85;20.50;;;7.90;99.90;;;;;;5074096;28;20052;-78
2022/11/23 07:50:08;;;;;;;39.10;20.73;;;7.90;99.90;;;;;;5091054;28;20149;-84
2022/11/23 07:52:36;;;;;;;34.55;18.98;;;7.80;99.90;;;;;;5115141;27;20492;-78
2022/11/23 07:55:01;;;;;;;29.40;18.83;;;7.90;99.90;;;;;;5073640;28;20049;-79
2022/11/23 07:57:27;;;;;;;33.75;19.35;;;7.90;99.90;;;;;;5058571;28;20040;-78
2022/11/23 07:59:53;;;;;;;30.42;18.30;;;7.80;99.90;;;;;;5057346;28;20052;-78
2022/11/23 08:02:19;;;;;;;29.33;18.08;;;7.90;99.90;;;;;;5057272;28;20123;-78
2022/11/23 08:04:45;;;;;;;31.25;19.63;;;7.80;99.90;;;;;;5057326;28;20044;-80
2022/11/23 08:07:11;;;;;;;28.52;17.17;;;7.90;99.90;;;;;;5057408;28;20055;-78
2022/11/23 08:09:37;;;;;;;31.23;17.05;;;7.90;99.90;;;;;;5090538;28;20161;-78
2022/11/23 08:12:03;;;;;;;23.60;15.40;;;7.90;99.90;;;;;;5102052;28;20044;-79
2022/11/23 08:14:29;;;;;;;28.35;15.85;;;7.90;99.90;;;;;;5072595;28;20036;-78
2022/11/23 08:16:54;;;;;;;27.13;15.45;;;7.90;99.90;;;;;;5044012;28;20115;-78
2022/11/23 08:19:20;;;;;;;25.83;15.85;;;7.90;99.90;;;;;;5036973;28;20049;-86
2022/11/23 08:21:46;;;;;;;31.08;16.70;;;7.90;99.90;;;;;;5036542;28;20045;-79
2022/11/23 08:24:11;;;;;;;24.52;13.90;;;7.90;99.90;;;;;;5044959;28;20052;-79
2022/11/23 08:26:37;;;;;;;20.33;13.88;;;7.90;99.90;;;;;;5055940;28;20370;-79
2022/11/23 08:29:03;;;;;;;20.63;13.45;;;8.00;99.90;;;;;;5031555;28;20064;-79
2022/11/23 08:31:29;;;;;;;23.40;13.88;;;8.00;99.90;;;;;;5062996;28;20049;-79
2022/11/23 08:33:55;;;;;;;20.90;14.07;;;8.00;99.90;;;;;;5070268;28;20048;-82
2022/11/23 08:36:21;;;;;;;24.38;13.35;;;8.00;99.90;;;;;;5072341;28;20089;-79
2022/11/23 08:38:50;;;;;;;22.98;13.40;;;8.00;99.90;;;;;;5048571;28;20051;-79
2022/11/23 08:41:19;;;;;;;22.25;12.55;;;8.10;99.90;;;;;;5054826;28;20503;-79
2022/11/23 08:43:49;;;;;;;23.48;12.80;;;8.00;99.90;;;;;;5039768;28;20052;-79
2022/11/23 08:46:15;;;;;;;22.08;13.35;;;8.00;99.90;;;;;;5074785;28;20063;-80
2022/11/23 08:48:40;;;;;;;23.85;13.07;;;8.10;99.90;;;;;;5073701;28;20057;-78
2022/11/23 08:51:07;;;;;;;26.73;14.02;;;8.10;99.90;;;;;;5069361;28;20040;-81
2022/11/23 08:53:33;;;;;;;24.65;14.20;;;8.00;99.90;;;;;;5056229;28;20060;-78
2022/11/23 08:56:06;;;;;;;23.95;12.77;;;8.10;99.90;;;;;;5072395;28;20404;-78
2022/11/23 08:58:32;;;;;;;24.65;13.27;;;8.10;99.90;;;;;;5038989;28;20118;-79
2022/11/23 09:00:58;;;;;;;20.65;13.60;;;8.20;99.90;;;;;;5065982;28;20118;-79
2022/11/23 09:03:24;;;;;;;23.05;12.57;;;8.20;99.90;;;;;;5071220;28;20056;-80
2022/11/23 09:05:53;;;;;;;20.73;13.27;;;8.20;99.90;;;;;;5083263;28;20047;-81
2022/11/23 09:08:19;;;;;;;27.00;14.15;;;8.20;99.90;;;;;;5047515;28;20060;-79
2022/11/23 09:10:45;;;;;;;23.33;13.55;;;8.30;99.90;;;;;;5070996;28;20119;-79
2022/11/23 09:13:11;;;;;;;24.55;12.88;;;8.20;99.90;;;;;;5083130;28;20540;-79
2022/11/23 09:15:36;;;;;;;28.05;13.82;;;8.40;99.90;;;;;;5087250;28;20515;-79
2022/11/23 09:18:02;;;;;;;26.60;14.32;;;8.40;99.90;;;;;;5070827;28;20048;-79
2022/11/23 09:20:29;;;;;;;24.73;14.02;;;8.60;99.90;;;;;;5053844;28;20197;-79
2022/11/23 09:22:55;;;;;;;25.60;13.32;;;8.60;99.90;;;;;;5053836;28;20049;-79
2022/11/23 09:25:21;;;;;;;21.35;13.45;;;8.60;99.90;;;;;;5070128;28;20037;-78
2022/11/23 09:27:48;;;;;;;23.92;13.57;;;8.60;99.90;;;;;;5053087;28;20591;-80
2022/11/23 09:30:15;;;;;;;23.08;14.05;;;8.60;99.90;;;;;;5053568;28;20052;-82
2022/11/23 09:32:41;;;;;;;24.90;13.77;;;8.60;99.90;;;;;;5075248;28;20052;-78
2022/11/23 09:35:07;;;;;;;26.27;14.48;;;8.60;99.90;;;;;;5058461;28;20055;-81
2022/11/23 09:37:32;;;;;;;22.95;12.07;;;8.60;99.90;;;;;;5066876;28;20052;-78
2022/11/23 09:39:58;;;;;;;25.17;13.70;;;8.60;99.90;;;;;;5050202;28;20068;-83
2022/11/23 09:43:00;;;;;;;24.98;13.88;;;8.70;99.90;;;;;;5056374;28;20041;-78
2022/11/23 09:45:49;;;;;;;21.85;12.20;;;8.70;99.90;;;;;;5071318;28;20052;-79
2022/11/23 09:48:54;;;;;;;23.95;11.88;;;8.70;99.90;;;;;;5070410;28;20102;-82
2022/11/23 09:51:24;;;;;;;21.05;10.10;;;8.70;99.90;;;;;;5057985;28;20052;-79
2022/11/23 09:54:03;;;;;;;20.50;10.15;;;8.70;99.90;;;;;;5046917;28;20048;-79
2022/11/23 09:56:34;;;;;;;20.55;10.52;;;8.70;99.90;;;;;;5073574;28;20119;-83
2022/11/23 09:59:09;;;;;;;18.23;10.10;;;8.70;99.90;;;;;;5073308;28;20056;-81
2022/11/23 10:01:35;;;;;;;18.23;9.47;;;8.70;99.90;;;;;;5072491;28;20051;-78
2022/11/23 10:04:03;;;;;;;24.60;10.57;;;8.70;99.90;;;;;;5054255;28;20131;-80
2022/11/23 10:06:33;;;;;;;18.35;10.27;;;8.70;99.90;;;;;;5072316;28;20048;-80
2022/11/23 10:09:28;;;;;;;23.20;11.02;;;8.60;99.90;;;;;;5071029;28;20043;-77
2022/11/23 10:12:04;;;;;;;21.95;11.43;;;8.70;99.90;;;;;;5071995;28;20050;-80
2022/11/23 10:14:57;;;;;;;22.92;10.45;;;8.60;99.90;;;;;;5071270;28;20044;-80
2022/11/23 10:17:47;;;;;;;16.98;9.98;;;8.60;99.90;;;;;;5069300;28;20040;-81
2022/11/23 10:20:37;;;;;;;22.73;10.80;;;8.70;99.90;;;;;;5071263;28;20170;-77
2022/11/23 10:23:10;;;;;;;22.00;10.10;;;8.60;99.90;;;;;;5072016;28;20384;-78
2022/11/23 10:25:46;;;;;;;23.17;9.60;;;8.70;99.90;;;;;;5072306;28;20048;-78
2022/11/23 10:28:17;;;;;;;30.15;11.70;;;8.70;99.90;;;;;;5053370;28;20069;-82
2022/11/23 10:30:50;;;;;;;22.65;9.75;;;8.70;99.90;;;;;;5072244;28;20060;-81
2022/11/23 10:33:32;;;;;;;21.05;8.90;;;8.70;99.90;;;;;;5050630;28;20094;-81
2022/11/23 10:35:58;;;;;;;19.42;10.00;;;8.70;99.90;;;;;;5084443;28;20132;-84
2022/11/23 10:38:27;;;;;;;25.30;8.85;;;8.70;99.90;;;;;;5057003;28;20119;-82
2022/11/23 10:41:05;;;;;;;22.55;8.93;;;8.60;99.90;;;;;;5070526;28;20052;-81
2022/11/23 10:43:54;;;;;;;21.10;9.35;;;8.70;99.90;;;;;;5071651;28;20481;-81
2022/11/23 10:46:34;;;;;;;24.48;8.88;;;8.70;99.90;;;;;;5072292;28;20060;-80
2022/11/23 10:49:23;;;;;;;22.77;8.38;;;8.80;99.90;;;;;;5070903;28;20048;-87
2022/11/23 10:52:02;;;;;;;26.38;9.00;;;8.90;99.90;;;;;;5105315;28;20057;-80
2022/11/23 10:54:46;;;;;;;20.77;6.70;;;8.90;99.90;;;;;;5104633;28;20041;-80
2022/11/23 10:57:27;;;;;;;18.00;6.70;;;8.90;99.90;;;;;;5071347;28;20067;-78
2022/11/23 11:00:20;;;;;;;21.20;6.43;;;9.10;99.90;;;;;;5088029;28;20136;-79
2022/11/23 11:02:56;;;;;;;18.95;5.80;;;9.20;99.90;;;;;;5061440;28;20060;-78
2022/11/23 11:05:27;;;;;;;23.60;6.47;;;9.30;99.90;;;;;;5054320;28;20052;-79
2022/11/23 11:07:54;;;;;;;15.13;5.15;;;9.50;99.90;;;;;;5086720;28;20069;-78
2022/11/23 11:10:42;;;;;;;19.92;4.90;;;9.70;99.90;;;;;;5087652;28;20053;-80
2022/11/23 11:13:25;;;;;;;15.60;4.63;;;10.00;99.90;;;;;;5101496;28;20049;-79
2022/11/23 11:15:59;;;;;;;17.40;3.85;;;10.30;99.90;;;;;;5075239;28;20082;-80
2022/11/23 11:18:32;;;;;;;17.20;4.40;;;10.70;99.90;;;;;;5057735;28;20403;-79
2022/11/23 11:21:20;;;;;;;15.35;3.92;;;10.90;99.90;;;;;;5058268;28;20048;-80
2022/11/23 11:24:04;;;;;;;15.10;3.80;;;10.90;99.90;;;;;;5074254;28;20064;-80
2022/11/23 11:26:32;;;;;;;16.70;3.92;;;10.90;99.90;;;;;;5074405;28;20109;-80
2022/11/23 11:29:08;;;;;;;15.15;4.25;;;10.80;99.90;;;;;;5075835;28;20400;-80
2022/11/23 11:31:49;;;;;;;15.25;3.85;;;11.00;99.90;;;;;;5078862;28;20056;-80
2022/11/23 11:34:43;;;;;;;13.63;3.58;;;11.10;99.90;;;;;;5104154;28;20057;-81
2022/11/23 11:37:12;;;;;;;15.27;4.07;;;11.10;99.90;;;;;;5054702;28;20049;-83
2022/11/23 11:39:48;;;;;;;16.00;4.00;;;11.40;99.90;;;;;;5091183;28;20055;-83
2022/11/23 11:42:31;;;;;;;19.33;3.85;;;11.60;99.90;;;;;;5073994;28;20048;-82
2022/11/23 11:44:59;;;;;;;19.10;3.80;;;11.50;99.90;;;;;;5057486;28;20549;-83
2022/11/23 11:47:38;;;;;;;12.23;3.00;;;11.40;99.90;;;;;;5074117;28;20111;-83
2022/11/23 11:50:22;;;;;;;15.10;3.22;;;11.50;99.90;;;;;;5074376;28;20048;-82
2022/11/23 11:52:53;;;;;;;13.43;3.25;;;11.50;99.90;;;;;;5074341;28;20396;-83
2022/11/23 11:55:44;;;;;;;12.02;3.00;;;11.50;99.90;;;;;;5073853;28;20499;-82
2022/11/23 11:58:13;;;;;;;12.80;4.05;;;11.20;99.90;;;;;;5064045;28;20037;-83
2022/11/23 12:00:39;;;;;;;15.93;3.63;;;10.70;99.90;;;;;;5053905;28;20562;-81
2022/11/23 12:03:17;;;;;;;15.82;3.63;;;10.70;99.90;;;;;;5053451;28;20048;-83
2022/11/23 12:05:48;;;;;;;11.02;3.50;;;10.60;99.90;;;;;;5070583;28;20049;-83
2022/11/23 12:08:21;;;;;;;17.13;3.40;;;11.00;99.90;;;;;;5053861;28;20525;-83
2022/11/23 12:10:57;;;;;;;14.15;3.40;;;11.30;99.90;;;;;;5070431;28;20481;-81
2022/11/23 12:13:33;;;;;;;14.48;3.28;;;11.60;99.90;;;;;;5053723;28;20052;-79
2022/11/23 12:16:29;;;;;;;15.10;3.33;;;11.60;99.90;;;;;;5069933;28;20080;-80
2022/11/23 12:19:18;;;;;;;16.70;3.45;;;11.90;99.90;;;;;;5053306;28;20416;-79
2022/11/23 12:22:22;;;;;;;13.02;2.85;;;11.90;99.90;;;;;;5053724;28;20045;-80
2022/11/23 12:25:03;;;;;;;18.83;3.35;;;12.20;99.90;;;;;;5053486;28;20189;-81
2022/11/23 12:27:59;;;;;;;18.98;3.90;;;12.00;99.90;;;;;;5069414;28;20052;-81
2022/11/23 12:31:00;;;;;;;14.43;3.03;;;11.60;99.90;;;;;;5070139;28;20049;-81
2022/11/23 12:33:35;;;;;;;15.48;3.42;;;11.40;99.90;;;;;;5069753;28;20135;-80
2022/11/23 12:36:25;;;;;;;19.63;3.83;;;11.70;99.90;;;;;;5053572;28;20060;-81
2022/11/23 12:38:59;;;;;;;16.58;2.80;;;12.30;99.90;;;;;;5070082;28;20140;-81
2022/11/23 12:41:57;;;;;;;14.80;3.25;;;12.70;99.90;;;;;;5052948;28;20053;-81
2022/11/23 12:44:56;;;;;;;18.20;2.97;;;12.80;99.90;;;;;;5069844;28;20060;-80
2022/11/23 12:47:46;;;;;;;12.90;2.88;;;12.90;99.90;;;;;;5052957;28;20059;-80
2022/11/23 12:50:58;;;;;;;13.27;3.03;;;12.80;99.90;;;;;;5053319;28;20067;-81